Time,TemperatureF,DewpointF,PressureIn,WindDirection,WindDirectionDegrees,WindSpeedMPH,WindSpeedGustMPH,Humidity,HourlyPrecipIn,Conditions,Clouds,dailyrainin,SolarRadiationWatts/m^2,SoftwareType,DateUTC
2013-05-19 00:00:00,72.9,71.7,30.06,NE,40,0.0,1.0,96,0.00,,,0.79,0.00,VWS V15.00,2013-05-19 04:00:00,
2013-05-19 00:01:00,72.9,71.7,30.06,NE,40,0.0,1.0,96,0.00,,CLR,0.79,0.00,VWS V14.01,2013-05-19 04:01:00,
2013-05-19 00:02:00,72.9,71.7,30.06,NE,40,0.0,0.0,96,0.00,,CLR,0.00,0.00,VWS V14.01,2013-05-19 04:02:00,
2013-05-19 00:07:00,72.8,71.6,30.06,East,85,0.0,1.0,96,0.00,,CLR,0.00,0.00,VWS V14.01,2013-05-19 04:07:00,
2013-05-19 00:12:00,73.0,71.8,30.06,East,90,0.0,2.0,96,0.00,,CLR,0.00,0.00,VWS V14.01,2013-05-19 04:12:00,
2013-05-19 00:17:00,72.9,71.7,30.06,East,90,0.0,2.0,96,0.00,,CLR,0.00,0.00,VWS V14.01,2013-05-19 04:17:00,
2013-05-19 00:22:00,72.8,71.6,30.06,East,90,0.0,2.0,96,0.00,,CLR,0.00,0.00,VWS V14.01,2013-05-19 04:22:00,
2013-05-19 00:27:00,72.9,71.7,30.06,East,90,0.0,2.0,96,0.00,,CLR,0.00,0.00,VWS V14.01,2013-05-19 04:27:00,
2013-05-19 00:30:00,73.0,71.8,30.06,NE,40,0.0,3.0,96,0.00,,,0.79,0.00,VWS V15.00,2013-05-19 04:30:00,
2013-05-19 00:32:00,72.9,71.7,30.06,East,90,0.0,0.0,96,0.00,,CLR,0.00,0.00,VWS V14.01,2013-05-19 04:32:00,
2013-05-19 00:37:00,72.8,71.6,30.06,East,90,1.0,2.0,96,0.00,,CLR,0.00,0.00,VWS V14.01,2013-05-19 04:37:00,
2013-05-19 00:42:00,72.8,71.6,30.06,East,90,0.0,2.0,96,0.00,,CLR,0.00,0.00,VWS V14.01,2013-05-19 04:42:00,
2013-05-19 00:47:00,72.9,72.0,30.06,East,90,2.0,2.0,97,0.00,,CLR,0.00,0.00,VWS V14.01,2013-05-19 04:47:00,
2013-05-19 00:52:00,73.0,72.1,30.06,East,90,0.0,2.0,97,0.00,,CLR,0.00,0.00,VWS V14.01,2013-05-19 04:52:00,
2013-05-19 00:57:00,73.2,72.3,30.06,East,90,2.0,3.0,97,0.00,,CLR,0.00,0.00,VWS V14.01,2013-05-19 04:57:00,
2013-05-19 01:00:00,73.3,72.4,30.06,East,92,2.0,5.0,97,0.00,,,0.00,0.00,VWS V15.00,2013-05-19 05:00:00,
2013-05-19 01:02:00,73.3,72.4,30.05,East,92,3.0,3.0,97,0.00,,CLR,0.00,0.00,VWS V14.01,2013-05-19 05:02:00,
2013-05-19 01:07:00,73.3,72.4,30.05,ESE,113,3.0,5.0,97,0.00,,CLR,0.00,0.00,VWS V14.01,2013-05-19 05:07:00,
2013-05-19 01:12:00,73.3,72.4,30.05,ESE,114,5.0,5.0,97,0.00,,CLR,0.00,0.00,VWS V14.01,2013-05-19 05:12:00,
2013-05-19 01:17:00,73.4,72.5,30.05,ESE,115,4.0,5.0,97,0.00,,CLR,0.00,0.00,VWS V14.01,2013-05-19 05:17:00,
2013-05-19 01:22:00,73.4,72.5,30.04,ESE,112,3.0,5.0,97,0.00,,CLR,0.00,0.00,VWS V14.01,2013-05-19 05:22:00,
2013-05-19 01:27:00,73.5,72.6,30.05,SE,135,1.0,5.0,97,0.00,,CLR,0.00,0.00,VWS V14.01,2013-05-19 05:27:00,
2013-05-19 01:30:00,73.5,72.6,30.05,SE,136,3.0,6.0,97,0.00,,,0.00,0.00,VWS V15.00,2013-05-19 05:30:00,
2013-05-19 01:32:00,73.5,72.6,30.05,SE,128,5.0,9.0,97,0.00,,CLR,0.00,0.00,VWS V14.01,2013-05-19 05:32:00,
2013-05-19 01:37:00,73.4,72.2,30.05,SE,141,7.0,9.0,96,0.00,,FEW024,0.00,0.00,VWS V14.01,2013-05-19 05:37:00,
2013-05-19 01:42:00,73.3,72.1,30.04,ESE,111,7.0,10.0,96,0.00,,FEW024,0.00,0.00,VWS V14.01,2013-05-19 05:42:00,
2013-05-19 01:47:00,73.2,72.0,30.04,SE,135,7.0,10.0,96,0.00,,FEW024,0.00,0.00,VWS V14.01,2013-05-19 05:47:00,
2013-05-19 01:52:00,73.1,71.9,30.04,SE,128,8.0,10.0,96,0.00,,FEW024,0.00,0.00,VWS V14.01,2013-05-19 05:52:00,
2013-05-19 01:57:00,73.0,71.8,30.04,SSE,157,5.0,10.0,96,0.00,,FEW024,0.00,0.00,VWS V14.01,2013-05-19 05:57:00,
2013-05-19 02:00:00,73.3,72.4,30.06,East,92,2.0,5.0,97,0.00,,,0.00,0.00,VWS V15.00,2013-05-19 06:00:00,
2013-05-19 02:02:00,72.9,71.7,30.03,SE,146,5.0,8.0,96,0.00,,FEW024,0.00,0.00,VWS V14.01,2013-05-19 06:02:00,
2013-05-19 02:07:00,72.8,71.6,30.03,SSE,165,3.0,8.0,96,0.00,,FEW024,0.00,0.00,VWS V14.01,2013-05-19 06:07:00,
2013-05-19 02:12:00,72.8,71.6,30.03,SSE,161,3.0,8.0,96,0.00,,FEW024,0.00,0.00,VWS V14.01,2013-05-19 06:12:00,
2013-05-19 02:17:00,72.8,71.6,30.03,SSE,163,3.0,8.0,96,0.00,,FEW024,0.00,0.00,VWS V14.01,2013-05-19 06:17:00,
2013-05-19 02:22:00,72.8,71.6,30.03,SE,136,3.0,9.0,96,0.00,,CLR,0.00,0.00,VWS V14.01,2013-05-19 06:22:00,
2013-05-19 02:27:00,72.8,71.3,30.03,SE,138,4.0,9.0,95,0.00,,CLR,0.00,0.00,VWS V14.01,2013-05-19 06:27:00,
2013-05-19 02:30:00,72.8,71.3,30.03,ESE,121,4.0,9.0,95,0.00,,,0.00,0.00,VWS V15.00,2013-05-19 06:30:00,
2013-05-19 02:33:00,72.8,71.3,30.03,SSE,147,2.0,4.0,95,0.00,,CLR,0.00,0.00,VWS V14.01,2013-05-19 06:33:00,
2013-05-19 02:38:00,72.8,71.3,30.03,SE,132,2.0,6.0,95,0.00,,CLR,0.00,0.00,VWS V14.01,2013-05-19 06:38:00,
2013-05-19 02:43:00,72.6,71.1,30.03,East,101,6.0,6.0,95,0.00,,CLR,0.00,0.00,VWS V14.01,2013-05-19 06:43:00,
2013-05-19 02:48:00,72.5,71.3,30.03,ESE,106,5.0,6.0,96,0.00,,CLR,0.00,0.00,VWS V14.01,2013-05-19 06:48:00,
2013-05-19 02:53:00,72.5,71.3,30.02,SE,129,5.0,7.0,96,0.00,,CLR,0.00,0.00,VWS V14.01,2013-05-19 06:53:00,
2013-05-19 02:58:00,72.5,71.3,30.02,ESE,112,3.0,7.0,96,0.00,,CLR,0.00,0.00,VWS V14.01,2013-05-19 06:58:00,
2013-05-19 03:00:00,72.9,71.7,30.03,SSE,159,3.0,10.0,96,0.00,,,0.00,0.00,VWS V15.00,2013-05-19 07:00:00,
2013-05-19 03:03:00,72.5,71.3,30.02,SSE,161,2.0,5.0,96,0.00,,CLR,0.00,0.00,VWS V14.01,2013-05-19 07:03:00,
2013-05-19 03:08:00,72.3,71.1,30.02,SSE,161,2.0,5.0,96,0.00,,CLR,0.00,0.00,VWS V14.01,2013-05-19 07:08:00,
2013-05-19 03:13:00,72.3,71.1,30.02,SE,126,2.0,5.0,96,0.00,,CLR,0.00,0.00,VWS V14.01,2013-05-19 07:13:00,
2013-05-19 03:18:00,72.4,71.2,30.02,SE,127,2.0,5.0,96,0.00,,CLR,0.00,0.00,VWS V14.01,2013-05-19 07:18:00,
2013-05-19 03:23:00,72.4,71.2,30.02,SE,124,3.0,5.0,96,0.00,,CLR,0.00,0.00,VWS V14.01,2013-05-19 07:23:00,
2013-05-19 03:28:00,72.3,71.1,30.03,ESE,109,4.0,5.0,96,0.00,,CLR,0.00,0.00,VWS V14.01,2013-05-19 07:28:00,
2013-05-19 03:30:00,72.8,71.3,30.03,ESE,121,4.0,9.0,95,0.00,,,0.00,0.00,VWS V15.00,2013-05-19 07:30:00,
2013-05-19 03:33:00,72.3,71.1,30.02,ESE,111,3.0,3.0,96,0.00,,CLR,0.00,0.00,VWS V14.01,2013-05-19 07:33:00,
2013-05-19 03:38:00,72.4,71.2,30.02,ESE,123,3.0,4.0,96,0.00,,CLR,0.00,0.00,VWS V14.01,2013-05-19 07:38:00,
2013-05-19 03:43:00,72.4,71.2,30.02,SE,138,3.0,4.0,96,0.00,,CLR,0.00,0.00,VWS V14.01,2013-05-19 07:43:00,
2013-05-19 03:48:00,72.4,71.2,30.02,ESE,119,5.0,6.0,96,0.00,,CLR,0.00,0.00,VWS V14.01,2013-05-19 07:48:00,
2013-05-19 03:53:00,72.5,71.3,30.02,SE,135,4.0,7.0,96,0.00,,CLR,0.00,0.00,VWS V14.01,2013-05-19 07:53:00,
2013-05-19 03:58:00,72.5,71.3,30.02,SE,132,3.0,7.0,96,0.00,,CLR,0.00,0.00,VWS V14.01,2013-05-19 07:58:00,
2013-05-19 04:00:00,72.5,71.3,30.02,SE,131,5.0,7.0,96,0.00,,,0.00,0.00,VWS V15.00,2013-05-19 08:00:00,
2013-05-19 04:03:00,72.5,71.3,30.01,ESE,111,2.0,3.0,96,0.00,,CLR,0.00,0.00,VWS V14.01,2013-05-19 08:03:00,
2013-05-19 04:08:00,72.4,71.2,30.01,SE,124,2.0,3.0,96,0.00,,CLR,0.00,0.00,VWS V14.01,2013-05-19 08:08:00,
2013-05-19 04:13:00,72.4,71.2,30.01,SE,128,3.0,4.0,96,0.00,,CLR,0.00,0.00,VWS V14.01,2013-05-19 08:13:00,
2013-05-19 04:18:00,72.3,71.1,30.01,SE,142,2.0,4.0,96,0.00,,CLR,0.00,0.00,VWS V14.01,2013-05-19 08:18:00,
2013-05-19 04:23:00,72.2,71.0,30.01,SE,142,3.0,4.0,96,0.00,,CLR,0.00,0.00,VWS V14.01,2013-05-19 08:23:00,
2013-05-19 04:28:00,72.2,71.0,30.01,SE,132,4.0,4.0,96,0.00,,CLR,0.00,0.00,VWS V14.01,2013-05-19 08:28:00,
2013-05-19 04:30:00,72.3,71.1,30.01,SE,130,2.0,4.0,96,0.00,,,0.00,0.00,VWS V15.00,2013-05-19 08:30:00,
2013-05-19 04:33:00,72.2,71.0,30.01,ESE,113,3.0,4.0,96,0.00,,CLR,0.00,0.00,VWS V14.01,2013-05-19 08:33:00,
2013-05-19 04:38:00,72.2,71.0,30.02,ESE,109,2.0,4.0,96,0.00,,CLR,0.00,0.00,VWS V14.01,2013-05-19 08:38:00,
2013-05-19 04:43:00,72.3,71.1,30.02,ESE,119,2.0,4.0,96,0.00,,CLR,0.00,0.00,VWS V14.01,2013-05-19 08:43:00,
2013-05-19 04:48:00,72.3,71.1,30.02,ESE,107,3.0,6.0,96,0.00,,CLR,0.00,0.00,VWS V14.01,2013-05-19 08:48:00,
2013-05-19 04:54:00,72.3,71.1,30.02,ESE,103,2.0,6.0,96,0.00,,CLR,0.00,0.00,VWS V14.01,2013-05-19 08:54:00,
2013-05-19 04:59:00,72.3,71.1,30.03,ESE,107,3.0,6.0,96,0.00,,CLR,0.00,0.00,VWS V14.01,2013-05-19 08:59:00,
2013-05-19 05:00:00,72.5,71.3,30.01,ESE,123,2.0,7.0,96,0.00,,,0.00,0.00,VWS V15.00,2013-05-19 09:00:00,
2013-05-19 05:04:00,72.3,71.1,30.02,ESE,102,4.0,6.0,96,0.00,,CLR,0.00,0.00,VWS V14.01,2013-05-19 09:04:00,
2013-05-19 05:09:00,72.3,71.1,30.02,ESE,114,4.0,7.0,96,0.00,,CLR,0.00,0.00,VWS V14.01,2013-05-19 09:09:00,
2013-05-19 05:14:00,72.4,71.2,30.02,ESE,120,3.0,7.0,96,0.00,,CLR,0.00,0.00,VWS V14.01,2013-05-19 09:14:00,
2013-05-19 05:19:00,72.4,71.2,30.02,ESE,114,4.0,7.0,96,0.00,,CLR,0.00,0.00,VWS V14.01,2013-05-19 09:19:00,
2013-05-19 05:24:00,72.4,71.2,30.02,ESE,110,3.0,7.0,96,0.00,,CLR,0.00,0.00,VWS V14.01,2013-05-19 09:24:00,
2013-05-19 05:29:00,72.5,71.3,30.03,ESE,114,2.0,7.0,96,0.00,,CLR,0.00,0.00,VWS V14.01,2013-05-19 09:29:00,
2013-05-19 05:30:00,72.5,71.3,30.02,ESE,105,2.0,7.0,96,0.00,,,0.00,0.00,VWS V15.00,2013-05-19 09:30:00,
2013-05-19 05:34:00,72.5,71.3,30.02,East,98,1.0,3.0,96,0.00,,CLR,0.00,0.00,VWS V14.01,2013-05-19 09:34:00,
2013-05-19 05:39:00,72.5,71.3,30.02,ESE,123,2.0,3.0,96,0.00,,CLR,0.00,0.00,VWS V14.01,2013-05-19 09:39:00,
2013-05-19 05:44:00,72.6,71.4,30.02,SE,140,3.0,4.0,96,0.00,,CLR,0.00,0.00,VWS V14.01,2013-05-19 09:44:00,
2013-05-19 05:49:00,72.6,71.4,30.03,SE,133,4.0,7.0,96,0.00,,CLR,0.00,0.00,VWS V14.01,2013-05-19 09:49:00,
2013-05-19 05:54:00,72.6,71.4,30.03,SE,124,4.0,7.0,96,0.00,,CLR,0.00,0.00,VWS V14.01,2013-05-19 09:54:00,
2013-05-19 05:59:00,72.6,71.4,30.03,ESE,115,3.0,7.0,96,0.00,,CLR,0.00,0.00,VWS V14.01,2013-05-19 09:59:00,
2013-05-19 06:00:00,72.6,71.4,30.03,ESE,115,1.0,7.0,96,0.00,,,0.00,0.00,VWS V15.00,2013-05-19 10:00:00,
2013-05-19 06:04:00,72.4,71.2,30.03,ESE,115,1.0,3.0,96,0.00,,CLR,0.00,0.00,VWS V14.01,2013-05-19 10:04:00,
2013-05-19 06:09:00,72.3,71.1,30.04,ESE,115,1.0,3.0,96,0.00,,CLR,0.00,0.00,VWS V14.01,2013-05-19 10:09:00,
2013-05-19 06:14:00,72.2,71.0,30.03,East,90,2.0,3.0,96,0.00,,CLR,0.00,0.00,VWS V14.01,2013-05-19 10:14:00,
2013-05-19 06:19:00,72.1,70.9,30.03,East,101,3.0,5.0,96,0.00,,CLR,0.00,0.00,VWS V14.01,2013-05-19 10:19:00,
2013-05-19 06:24:00,72.0,70.8,30.03,ESE,109,3.0,5.0,96,0.00,,CLR,0.00,0.00,VWS V14.01,2013-05-19 10:24:00,
2013-05-19 06:29:00,71.8,70.6,30.03,SE,124,2.0,5.0,96,0.00,,CLR,0.00,0.00,VWS V14.01,2013-05-19 10:29:00,
2013-05-19 06:30:00,71.7,70.5,30.03,SE,124,2.0,5.0,96,0.00,,,0.00,0.00,VWS V15.00,2013-05-19 10:30:00,
2013-05-19 06:34:00,71.6,70.4,30.04,ESE,116,4.0,5.0,96,0.00,,CLR,0.00,0.00,VWS V14.01,2013-05-19 10:34:00,
2013-05-19 06:39:00,71.5,70.3,30.04,ESE,109,2.0,5.0,96,0.00,,CLR,0.00,5.00,VWS V14.01,2013-05-19 10:39:00,
2013-05-19 06:44:00,71.5,70.0,30.04,East,92,3.0,5.0,95,0.00,,CLR,0.00,9.00,VWS V14.01,2013-05-19 10:44:00,
2013-05-19 06:49:00,71.3,69.8,30.04,ESE,106,3.0,5.0,95,0.00,,CLR,0.00,12.00,VWS V14.01,2013-05-19 10:49:00,
2013-05-19 06:54:00,71.2,69.7,30.05,East,91,2.0,5.0,95,0.00,,CLR,0.00,18.00,VWS V14.01,2013-05-19 10:54:00,
2013-05-19 06:59:00,71.1,69.6,30.05,East,98,1.0,5.0,95,0.00,,CLR,0.00,21.00,VWS V14.01,2013-05-19 10:59:00,
2013-05-19 07:00:00,72.6,71.4,30.03,ESE,115,1.0,7.0,96,0.00,,,0.00,0.00,VWS V15.00,2013-05-19 11:00:00,
2013-05-19 07:04:00,71.1,69.3,30.05,ESE,111,1.0,3.0,94,0.00,,CLR,0.00,26.00,VWS V14.01,2013-05-19 11:04:00,
2013-05-19 07:09:00,71.2,69.4,30.05,ESE,109,1.0,3.0,94,0.00,,CLR,0.00,39.00,VWS V14.01,2013-05-19 11:09:00,
2013-05-19 07:14:00,71.2,69.4,30.05,ESE,115,1.0,4.0,94,0.00,,CLR,0.00,49.00,VWS V14.01,2013-05-19 11:14:00,
2013-05-19 07:19:00,71.5,69.4,30.05,ESE,115,2.0,4.0,93,0.00,,CLR,0.00,58.00,VWS V14.01,2013-05-19 11:19:00,
2013-05-19 07:24:00,71.7,69.6,30.06,ESE,107,4.0,5.0,93,0.00,,CLR,0.00,70.00,VWS V14.01,2013-05-19 11:24:00,
2013-05-19 07:29:00,71.9,69.4,30.06,ESE,121,3.0,5.0,92,0.00,,CLR,0.00,77.00,VWS V14.01,2013-05-19 11:29:00,
2013-05-19 07:30:00,71.9,69.4,30.06,ESE,115,4.0,5.0,92,0.00,,,0.00,79.00,VWS V15.00,2013-05-19 11:30:00,
2013-05-19 07:34:00,72.2,69.8,30.06,ESE,107,3.0,5.0,92,0.00,,CLR,0.00,86.00,VWS V14.01,2013-05-19 11:34:00,
2013-05-19 07:40:00,72.5,69.7,30.06,East,100,3.0,5.0,91,0.00,,CLR,0.00,95.00,VWS V14.01,2013-05-19 11:40:00,
2013-05-19 07:45:00,72.8,70.0,30.06,East,101,5.0,6.0,91,0.00,,CLR,0.00,109.00,VWS V14.01,2013-05-19 11:45:00,
2013-05-19 07:50:00,72.9,70.1,30.06,ESE,117,5.0,7.0,91,0.00,,CLR,0.00,127.00,VWS V14.01,2013-05-19 11:50:00,
2013-05-19 07:55:00,73.1,70.3,30.06,East,82,2.0,7.0,91,0.00,,CLR,0.00,146.00,VWS V14.01,2013-05-19 11:55:00,
2013-05-19 08:00:00,73.2,70.1,30.06,East,80,8.0,8.0,90,0.00,,CLR,0.00,163.00,VWS V14.01,2013-05-19 12:00:00,
2013-05-19 08:05:00,73.2,69.8,30.06,East,96,10.0,10.0,89,0.00,,CLR,0.00,163.00,VWS V14.01,2013-05-19 12:05:00,
2013-05-19 08:10:00,73.3,69.9,30.06,ESE,108,4.0,10.0,89,0.01,,CLR,0.01,178.00,VWS V14.01,2013-05-19 12:10:00,
2013-05-19 08:15:00,73.5,70.1,30.06,ESE,117,2.0,10.0,89,0.01,,CLR,0.01,171.00,VWS V14.01,2013-05-19 12:15:00,
2013-05-19 08:20:00,73.7,70.3,30.07,ESE,109,2.0,10.0,89,0.01,,CLR,0.01,202.00,VWS V14.01,2013-05-19 12:20:00,
2013-05-19 08:25:00,73.8,70.0,30.07,East,89,5.0,10.0,88,0.01,,CLR,0.01,232.00,VWS V14.01,2013-05-19 12:25:00,
2013-05-19 08:30:00,74.4,70.9,30.07,ESE,108,3.0,10.0,89,0.01,,CLR,0.01,243.00,VWS V14.01,2013-05-19 12:30:00,
2013-05-19 08:35:00,74.2,70.4,30.07,ESE,113,2.0,6.0,88,0.01,,CLR,0.01,257.00,VWS V14.01,2013-05-19 12:35:00,
2013-05-19 08:40:00,74.7,70.9,30.07,SSE,152,5.0,7.0,88,0.01,,CLR,0.01,272.00,VWS V14.01,2013-05-19 12:40:00,
2013-05-19 08:45:00,75.0,70.9,30.07,ESE,105,4.0,7.0,87,0.01,,CLR,0.01,287.00,VWS V14.01,2013-05-19 12:45:00,
2013-05-19 08:50:00,75.0,70.9,30.08,ESE,103,8.0,8.0,87,0.01,,CLR,0.01,392.00,VWS V14.01,2013-05-19 12:50:00,
2013-05-19 08:55:00,75.2,70.7,30.08,East,100,3.0,9.0,86,0.01,,CLR,0.01,388.00,VWS V14.01,2013-05-19 12:55:00,
2013-05-19 09:00:00,75.9,71.4,30.08,SSE,153,2.0,9.0,86,0.01,,CLR,0.01,410.00,VWS V14.01,2013-05-19 13:00:00,
2013-05-19 09:05:00,75.9,71.4,30.08,ESE,110,3.0,7.0,86,0.01,,CLR,0.01,390.00,VWS V14.01,2013-05-19 13:05:00,
2013-05-19 09:10:00,76.5,72.0,30.08,ESE,111,5.0,11.0,86,0.01,,CLR,0.01,250.00,VWS V14.01,2013-05-19 13:10:00,
2013-05-19 09:15:00,76.5,72.0,30.08,ESE,119,7.0,11.0,86,0.01,,CLR,0.01,283.00,VWS V14.01,2013-05-19 13:15:00,
2013-05-19 09:20:00,76.8,72.3,30.08,East,92,8.0,11.0,86,0.01,,CLR,0.01,327.00,VWS V14.01,2013-05-19 13:20:00,
2013-05-19 09:25:00,77.0,72.2,30.08,SE,125,7.0,11.0,85,0.01,,CLR,0.01,232.00,VWS V14.01,2013-05-19 13:25:00,
2013-05-19 09:30:00,77.3,72.4,30.08,SSE,156,5.0,11.0,85,0.01,,CLR,0.01,394.00,VWS V14.01,2013-05-19 13:30:00,
2013-05-19 09:35:00,77.3,72.4,30.08,SSE,168,6.0,9.0,85,0.00,,CLR,0.01,274.00,VWS V14.01,2013-05-19 13:35:00,
2013-05-19 09:40:00,77.3,72.1,30.08,SE,128,8.0,11.0,84,0.00,,CLR,0.01,283.00,VWS V14.01,2013-05-19 13:40:00,
2013-05-19 09:45:00,77.5,72.3,30.08,South,190,6.0,11.0,84,0.00,,CLR,0.01,366.00,VWS V14.01,2013-05-19 13:45:00,
2013-05-19 09:50:00,77.7,72.5,30.08,SSE,149,5.0,11.0,84,0.00,,CLR,0.01,352.00,VWS V14.01,2013-05-19 13:50:00,
2013-05-19 09:55:00,77.5,71.9,30.08,SSW,192,3.0,11.0,83,0.00,,CLR,0.01,601.00,VWS V14.01,2013-05-19 13:55:00,
2013-05-19 10:00:00,78.3,72.7,30.08,South,170,7.0,11.0,83,0.00,,OVC017,0.01,601.00,VWS V14.01,2013-05-19 14:00:00,
2013-05-19 10:06:00,78.8,72.8,30.08,SSE,164,4.0,7.0,82,0.00,,OVC017,0.01,603.00,VWS V14.01,2013-05-19 14:06:00,
2013-05-19 10:11:00,79.2,72.9,30.08,SE,137,8.0,9.0,81,0.00,,OVC017,0.01,552.00,VWS V14.01,2013-05-19 14:11:00,
2013-05-19 10:16:00,79.2,72.9,30.08,South,191,5.0,9.0,81,0.00,,OVC017,0.01,631.00,VWS V14.01,2013-05-19 14:16:00,
2013-05-19 10:21:00,79.6,73.6,30.08,South,169,5.0,9.0,82,0.00,,OVC017,0.01,631.00,VWS V14.01,2013-05-19 14:21:00,
2013-05-19 10:26:00,79.9,73.6,30.08,SSW,206,5.0,9.0,81,0.00,,OVC017,0.01,661.00,VWS V14.01,2013-05-19 14:26:00,
2013-05-19 10:30:00,77.4,72.5,30.08,SSE,159,7.0,11.0,85,0.01,,,0.01,394.00,VWS V15.00,2013-05-19 14:30:00,
2013-05-19 10:31:00,79.8,72.7,30.08,SE,134,4.0,4.0,79,0.00,,OVC017,0.01,654.00,VWS V14.01,2013-05-19 14:31:00,
2013-05-19 10:36:00,80.1,73.4,30.08,East,94,3.0,10.0,80,0.00,,OVC017,0.01,691.00,VWS V14.01,2013-05-19 14:36:00,
2013-05-19 10:41:00,80.1,73.0,30.08,SSW,202,5.0,10.0,79,0.00,,OVC017,0.01,703.00,VWS V14.01,2013-05-19 14:41:00,
2013-05-19 10:46:00,80.3,73.2,30.08,South,169,7.0,10.0,79,0.00,,OVC017,0.01,708.00,VWS V14.01,2013-05-19 14:46:00,
2013-05-19 10:51:00,80.6,72.7,30.08,SSW,199,5.0,10.0,77,0.00,,OVC017,0.01,721.00,VWS V14.01,2013-05-19 14:51:00,
2013-05-19 10:56:00,80.3,72.8,30.07,SSW,213,3.0,10.0,78,0.00,,OVC017,0.01,731.00,VWS V14.01,2013-05-19 14:56:00,
2013-05-19 11:00:00,80.7,73.6,30.08,SSW,205,6.0,10.0,79,0.00,,,0.01,747.00,VWS V15.00,2013-05-19 15:00:00,
2013-05-19 11:01:00,80.6,72.7,30.08,WSW,241,4.0,6.0,77,0.00,,BKN021,0.01,747.00,VWS V14.01,2013-05-19 15:01:00,
2013-05-19 11:06:00,80.8,73.3,30.07,SSW,208,4.0,8.0,78,0.00,,BKN021,0.01,761.00,VWS V14.01,2013-05-19 15:06:00,
2013-05-19 11:11:00,80.4,72.9,30.07,SW,234,6.0,8.0,78,0.00,,BKN021,0.01,761.00,VWS V14.01,2013-05-19 15:11:00,
2013-05-19 11:16:00,80.6,73.5,30.07,SSE,166,6.0,8.0,79,0.00,,BKN021,0.01,824.00,VWS V14.01,2013-05-19 15:16:00,
2013-05-19 11:21:00,80.6,73.5,30.07,SSE,166,6.0,8.0,79,0.00,,BKN021,0.01,833.00,VWS V14.01,2013-05-19 15:21:00,
2013-05-19 11:26:00,81.6,74.5,30.07,SE,127,4.0,8.0,79,0.00,,BKN021,0.01,860.00,VWS V14.01,2013-05-19 15:26:00,
2013-05-19 11:30:00,82.0,73.7,30.07,SSE,159,1.0,8.0,76,0.00,,,0.01,861.00,VWS V15.00,2013-05-19 15:30:00,
2013-05-19 11:31:00,82.0,73.7,30.07,SSE,159,1.0,2.0,76,0.00,,BKN021,0.01,851.00,VWS V14.01,2013-05-19 15:31:00,
2013-05-19 11:36:00,82.6,74.7,30.07,ESE,121,5.0,10.0,77,0.00,,BKN021,0.01,904.00,VWS V14.01,2013-05-19 15:36:00,
2013-05-19 11:41:00,82.7,73.6,30.07,South,186,1.0,10.0,74,0.00,,BKN021,0.01,888.00,VWS V14.01,2013-05-19 15:41:00,
2013-05-19 11:46:00,82.8,74.5,30.07,SSE,157,7.0,10.0,76,0.00,,BKN021,0.01,925.00,VWS V14.01,2013-05-19 15:46:00,
2013-05-19 11:51:00,82.8,74.5,30.07,SSE,156,1.0,10.0,76,0.00,,BKN021,0.01,814.00,VWS V14.01,2013-05-19 15:51:00,
2013-05-19 11:56:00,83.0,74.3,30.07,South,182,3.0,10.0,75,0.00,,BKN021,0.01,849.00,VWS V14.01,2013-05-19 15:56:00,
2013-05-19 12:00:00,82.8,73.3,30.07,WSW,247,1.0,10.0,73,0.00,,,0.01,302.00,VWS V15.00,2013-05-19 16:00:00,
2013-05-19 12:01:00,82.7,73.2,30.07,SW,229,4.0,4.0,73,0.00,,SCT028,0.01,302.00,VWS V14.01,2013-05-19 16:01:00,
2013-05-19 12:06:00,82.9,73.8,30.07,WNW,302,3.0,4.0,74,0.00,,SCT028,0.01,904.00,VWS V14.01,2013-05-19 16:06:00,
2013-05-19 12:11:00,83.6,73.6,30.07,SW,222,5.0,6.0,72,0.00,,SCT028,0.01,888.00,VWS V14.01,2013-05-19 16:11:00,
2013-05-19 12:16:00,83.3,74.6,30.07,West,276,2.0,6.0,75,0.00,,SCT028,0.01,900.00,VWS V14.01,2013-05-19 16:16:00,
2013-05-19 12:22:00,83.7,73.7,30.06,ESE,115,1.0,6.0,72,0.00,,SCT028,0.01,886.00,VWS V14.01,2013-05-19 16:22:00,
2013-05-19 12:27:00,83.4,73.8,30.06,SW,223,3.0,7.0,73,0.00,,SCT028,0.01,735.00,VWS V14.01,2013-05-19 16:27:00,
2013-05-19 12:30:00,82.0,73.7,30.07,SSE,159,1.0,8.0,76,0.00,,,0.01,861.00,VWS V15.00,2013-05-19 16:30:00,
2013-05-19 12:32:00,83.3,73.8,30.06,South,175,0.0,0.0,73,0.00,,SCT028,0.01,339.00,VWS V14.01,2013-05-19 16:32:00,
2013-05-19 12:37:00,83.4,73.4,30.06,SE,130,2.0,5.0,72,0.00,,SCT028,0.01,278.00,VWS V14.01,2013-05-19 16:37:00,
2013-05-19 12:42:00,84.2,73.4,30.05,SSE,164,0.0,6.0,70,0.00,,SCT028,0.01,879.00,VWS V14.01,2013-05-19 16:42:00,
2013-05-19 12:47:00,84.3,73.5,30.05,East,84,1.0,6.0,70,0.00,,SCT028,0.01,997.00,VWS V14.01,2013-05-19 16:47:00,
2013-05-19 12:52:00,84.5,73.7,30.05,ENE,65,3.0,7.0,70,0.00,,SCT028,0.01,940.00,VWS V14.01,2013-05-19 16:52:00,
2013-05-19 12:57:00,85.5,75.0,30.04,SE,128,8.0,8.0,71,0.00,,SCT028,0.01,896.00,VWS V14.01,2013-05-19 16:57:00,
2013-05-19 13:00:00,85.6,74.7,30.04,SE,134,2.0,9.0,70,0.00,,,0.01,898.00,VWS V15.00,2013-05-19 17:00:00,
2013-05-19 13:02:00,85.4,74.1,30.04,SE,137,7.0,7.0,69,0.00,,BKN036,0.01,905.00,VWS V14.01,2013-05-19 17:02:00,
2013-05-19 13:07:00,85.6,73.8,30.03,ESE,116,1.0,11.0,68,0.00,,BKN036,0.01,935.00,VWS V14.01,2013-05-19 17:07:00,
2013-05-19 13:12:00,86.1,74.8,30.03,SE,136,8.0,11.0,69,0.00,,BKN036,0.01,944.00,VWS V14.01,2013-05-19 17:12:00,
2013-05-19 13:17:00,85.9,74.1,30.02,SE,138,3.0,11.0,68,0.00,,BKN036,0.01,953.00,VWS V14.01,2013-05-19 17:17:00,
2013-05-19 13:22:00,86.4,75.0,30.02,South,177,3.0,11.0,69,0.00,,BKN036,0.01,930.00,VWS V14.01,2013-05-19 17:22:00,
2013-05-19 13:27:00,86.4,72.8,30.02,SSE,159,7.0,11.0,64,0.00,,BKN036,0.01,888.00,VWS V14.01,2013-05-19 17:27:00,
2013-05-19 13:30:00,86.9,74.2,30.02,SE,141,5.0,11.0,66,0.00,,,0.01,933.00,VWS V15.00,2013-05-19 17:30:00,
2013-05-19 13:32:00,86.9,73.3,30.02,ESE,108,5.0,12.0,64,0.00,,BKN036,0.01,932.00,VWS V14.01,2013-05-19 17:32:00,
2013-05-19 13:37:00,86.8,73.2,30.02,SW,219,3.0,12.0,64,0.00,,BKN036,0.01,977.00,VWS V14.01,2013-05-19 17:37:00,
2013-05-19 13:42:00,85.9,72.3,30.02,SSW,207,2.0,12.0,64,0.00,,BKN036,0.01,178.00,VWS V14.01,2013-05-19 17:42:00,
2013-05-19 13:47:00,85.1,72.0,30.02,SSE,148,1.0,12.0,65,0.00,,BKN036,0.01,183.00,VWS V14.01,2013-05-19 17:47:00,
2013-05-19 13:52:00,85.1,72.0,30.01,SE,139,7.0,12.0,65,0.00,,BKN036,0.01,213.00,VWS V14.01,2013-05-19 17:52:00,
2013-05-19 13:57:00,85.2,71.2,30.01,South,175,0.0,12.0,63,0.00,,BKN036,0.01,246.00,VWS V14.01,2013-05-19 17:57:00,
2013-05-19 14:00:00,85.6,74.7,30.04,SE,134,2.0,9.0,70,0.00,,,0.01,898.00,VWS V15.00,2013-05-19 18:00:00,
2013-05-19 14:02:00,85.6,71.6,30.01,SSW,202,1.0,3.0,63,0.00,,SCT055,0.01,374.00,VWS V14.01,2013-05-19 18:02:00,
2013-05-19 14:07:00,86.8,73.6,30.01,SE,125,4.0,5.0,65,0.00,,SCT055,0.01,872.00,VWS V14.01,2013-05-19 18:07:00,
2013-05-19 14:12:00,86.0,71.9,30.01,East,83,2.0,5.0,63,0.00,,SCT055,0.01,355.00,VWS V14.01,2013-05-19 18:12:00,
2013-05-19 14:17:00,87.1,72.5,30.01,ESE,115,3.0,5.0,62,0.00,,SCT055,0.01,947.00,VWS V14.01,2013-05-19 18:17:00,
2013-05-19 14:22:00,87.0,71.4,30.01,East,92,5.0,6.0,60,0.00,,SCT055,0.01,397.00,VWS V14.01,2013-05-19 18:22:00,
2013-05-19 14:27:00,86.4,70.4,30.01,East,91,2.0,6.0,59,0.00,,SCT055,0.01,272.00,VWS V14.01,2013-05-19 18:27:00,
2013-05-19 14:30:00,86.9,74.2,30.02,SE,141,5.0,11.0,66,0.00,,,0.01,933.00,VWS V15.00,2013-05-19 18:30:00,
2013-05-19 14:32:00,86.1,69.6,30.01,ESE,107,7.0,8.0,58,0.00,,SCT055,0.01,237.00,VWS V14.01,2013-05-19 18:32:00,
2013-05-19 14:37:00,86.1,70.1,30.01,ESE,104,1.0,8.0,59,0.00,,SCT055,0.01,246.00,VWS V14.01,2013-05-19 18:37:00,
2013-05-19 14:42:00,86.2,71.2,30.01,NE,46,4.0,8.0,61,0.00,,SCT055,0.01,246.00,VWS V14.01,2013-05-19 18:42:00,
2013-05-19 14:48:00,85.9,69.9,30.01,ENE,62,3.0,8.0,59,0.00,,SCT055,0.01,434.00,VWS V14.01,2013-05-19 18:48:00,
2013-05-19 14:53:00,86.9,72.3,30.01,North,10,6.0,8.0,62,0.00,,SCT055,0.01,657.00,VWS V14.01,2013-05-19 18:53:00,
2013-05-19 14:58:00,87.0,72.9,30.01,NE,51,3.0,8.0,63,0.00,,BKN050,0.01,295.00,VWS V14.01,2013-05-19 18:58:00,
2013-05-19 15:00:00,86.4,72.8,30.01,NE,41,5.0,11.0,64,0.00,,,0.01,225.00,VWS V15.00,2013-05-19 19:00:00,
2013-05-19 15:03:00,85.6,72.9,30.01,NNE,32,12.0,12.0,66,0.00,,BKN050,0.01,237.00,VWS V14.01,2013-05-19 19:03:00,
2013-05-19 15:08:00,83.0,72.2,30.00,NE,40,3.0,17.0,70,0.00,,BKN050,0.01,257.00,VWS V14.01,2013-05-19 19:08:00,
2013-05-19 15:13:00,82.1,72.2,30.00,NNE,24,6.0,17.0,72,0.00,,BKN050,0.01,225.00,VWS V14.01,2013-05-19 19:13:00,
2013-05-19 15:18:00,82.1,73.0,30.00,North,355,6.0,17.0,74,0.00,,BKN050,0.01,151.00,VWS V14.01,2013-05-19 19:18:00,
2013-05-19 15:23:00,81.6,72.5,30.01,ENE,64,2.0,17.0,74,0.00,,BKN050,0.01,148.00,VWS V14.01,2013-05-19 19:23:00,
2013-05-19 15:28:00,81.4,73.1,30.01,West,267,5.0,17.0,76,0.00,,BKN050,0.01,142.00,VWS V14.01,2013-05-19 19:28:00,
2013-05-19 15:30:00,80.8,72.9,30.01,WNW,292,4.0,17.0,77,0.00,,,0.01,160.00,VWS V15.00,2013-05-19 19:30:00,
2013-05-19 15:33:00,79.7,71.5,30.00,WSW,240,6.0,15.0,76,0.00,,BKN050,0.01,171.00,VWS V14.01,2013-05-19 19:33:00,
2013-05-19 15:38:00,78.9,71.5,30.00,SSW,192,4.0,15.0,78,0.00,,BKN050,0.01,195.00,VWS V14.01,2013-05-19 19:38:00,
2013-05-19 15:43:00,78.6,71.6,29.99,SSE,158,3.0,15.0,79,0.00,,BKN050,0.01,243.00,VWS V14.01,2013-05-19 19:43:00,
2013-05-19 15:48:00,79.2,72.5,29.98,South,169,2.0,15.0,80,0.00,,BKN050,0.01,318.00,VWS V14.01,2013-05-19 19:48:00,
2013-05-19 15:53:00,79.7,73.7,29.99,South,173,5.0,15.0,82,0.00,,BKN050,0.01,501.00,VWS V14.01,2013-05-19 19:53:00,
2013-05-19 15:58:00,80.7,72.4,29.99,SE,130,8.0,15.0,76,0.00,,BKN060,0.01,615.00,VWS V14.01,2013-05-19 19:58:00,
2013-05-19 16:00:00,81.4,71.5,29.99,SE,132,6.0,15.0,72,0.00,,,0.01,594.00,VWS V15.00,2013-05-19 20:00:00,
2013-05-19 16:03:00,81.9,70.3,29.99,SE,130,5.0,8.0,68,0.00,,BKN060,0.01,441.00,VWS V14.01,2013-05-19 20:03:00,
2013-05-19 16:08:00,82.3,69.8,29.99,East,101,5.0,8.0,66,0.00,,BKN060,0.01,390.00,VWS V14.01,2013-05-19 20:08:00,
2013-05-19 16:13:00,82.7,71.1,30.00,SE,131,5.0,8.0,68,0.00,,BKN060,0.01,241.00,VWS V14.01,2013-05-19 20:13:00,
2013-05-19 16:18:00,82.4,70.8,29.99,SE,146,1.0,8.0,68,0.00,,BKN060,0.01,139.00,VWS V14.01,2013-05-19 20:18:00,
2013-05-19 16:23:00,82.5,71.3,30.00,SSW,195,7.0,11.0,69,0.00,,BKN060,0.01,118.00,VWS V14.01,2013-05-19 20:23:00,
2013-05-19 16:28:00,81.4,71.1,30.00,SSE,168,7.0,11.0,71,0.00,,BKN060,0.01,181.00,VWS V14.01,2013-05-19 20:28:00,
2013-05-19 16:30:00,81.0,71.9,30.00,SSW,198,7.0,11.0,74,0.00,,,0.01,211.00,VWS V15.00,2013-05-19 20:30:00,
2013-05-19 16:33:00,80.5,71.8,30.00,SSW,207,6.0,9.0,75,0.00,,BKN060,0.01,230.00,VWS V14.01,2013-05-19 20:33:00,
2013-05-19 16:38:00,80.0,71.8,29.99,South,174,2.0,10.0,76,0.00,,BKN060,0.01,462.00,VWS V14.01,2013-05-19 20:38:00,
2013-05-19 16:43:00,79.5,71.7,29.99,South,191,4.0,10.0,77,0.00,,BKN060,0.01,258.00,VWS V14.01,2013-05-19 20:43:00,
2013-05-19 16:48:00,79.0,71.9,29.99,SW,217,1.0,10.0,79,0.00,,BKN060,0.01,248.00,VWS V14.01,2013-05-19 20:48:00,
2013-05-19 16:53:00,79.4,71.9,29.98,WSW,250,0.0,10.0,78,0.00,,BKN060,0.01,345.00,VWS V14.01,2013-05-19 20:53:00,
2013-05-19 16:59:00,80.4,71.8,29.98,South,171,5.0,10.0,75,0.00,,SCT050,0.01,633.00,VWS V14.01,2013-05-19 20:59:00,
2013-05-19 17:00:00,80.3,71.3,29.98,SW,219,3.0,10.0,74,0.00,,,0.01,596.00,VWS V15.00,2013-05-19 21:00:00,
2013-05-19 17:04:00,80.7,71.7,29.98,SSW,206,4.0,4.0,74,0.00,,SCT050,0.01,605.00,VWS V14.01,2013-05-19 21:04:00,
2013-05-19 17:09:00,81.0,71.1,29.97,SSE,163,1.0,4.0,72,0.00,,SCT050,0.01,301.00,VWS V14.01,2013-05-19 21:09:00,
2013-05-19 17:14:00,81.1,70.8,29.97,SSE,159,4.0,5.0,71,0.00,,SCT050,0.01,301.00,VWS V14.01,2013-05-19 21:14:00,
2013-05-19 17:19:00,80.9,70.2,29.97,SE,138,3.0,6.0,70,0.00,,SCT050,0.01,188.00,VWS V14.01,2013-05-19 21:19:00,
2013-05-19 17:24:00,80.9,70.6,29.98,SE,131,0.0,6.0,71,0.00,,SCT050,0.01,146.00,VWS V14.01,2013-05-19 21:24:00,
2013-05-19 17:29:00,81.3,70.6,29.98,SE,130,1.0,6.0,70,0.00,,SCT050,0.01,141.00,VWS V14.01,2013-05-19 21:29:00,
2013-05-19 17:30:00,81.4,71.1,29.98,SE,132,2.0,6.0,71,0.00,,,0.01,165.00,VWS V15.00,2013-05-19 21:30:00,
2013-05-19 17:34:00,81.5,70.4,29.98,SSE,150,4.0,5.0,69,0.00,,SCT050,0.01,179.00,VWS V14.01,2013-05-19 21:34:00,
2013-05-19 17:39:00,81.6,70.0,29.99,SE,146,4.0,7.0,68,0.00,,SCT050,0.01,227.00,VWS V14.01,2013-05-19 21:39:00,
2013-05-19 17:44:00,81.5,70.4,29.99,South,169,2.0,7.0,69,0.00,,SCT050,0.01,243.00,VWS V14.01,2013-05-19 21:44:00,
2013-05-19 17:49:00,81.8,70.2,30.00,South,173,5.0,7.0,68,0.00,,SCT050,0.01,130.00,VWS V14.01,2013-05-19 21:49:00,
2013-05-19 17:54:00,82.1,70.5,30.00,ESE,113,15.0,15.0,68,0.00,,SCT050,0.01,65.00,VWS V14.01,2013-05-19 21:54:00,
2013-05-19 17:59:00,80.5,69.8,30.00,SE,134,15.0,18.0,70,0.00,,SCT050,0.01,84.00,VWS V14.01,2013-05-19 21:59:00,
2013-05-19 18:00:00,80.0,69.8,30.00,ESE,123,10.0,18.0,71,0.00,,,0.01,93.00,VWS V15.00,2013-05-19 22:00:00,
2013-05-19 18:04:00,79.6,70.2,30.00,SE,145,10.0,11.0,73,0.00,,SCT050,0.01,132.00,VWS V14.01,2013-05-19 22:04:00,
2013-05-19 18:09:00,79.8,69.6,29.99,SE,142,7.0,13.0,71,0.00,,SCT050,0.01,149.00,VWS V14.01,2013-05-19 22:09:00,
2013-05-19 18:14:00,80.0,69.8,29.99,ESE,117,5.0,13.0,71,0.00,,SCT050,0.01,125.00,VWS V14.01,2013-05-19 22:14:00,
2013-05-19 18:19:00,80.3,70.1,29.99,SSE,156,6.0,13.0,71,0.00,,SCT050,0.01,149.00,VWS V14.01,2013-05-19 22:19:00,
2013-05-19 18:24:00,80.7,69.6,30.00,SE,140,1.0,13.0,69,0.00,,SCT050,0.01,123.00,VWS V14.01,2013-05-19 22:24:00,
2013-05-19 18:29:00,80.7,70.0,29.99,SE,138,0.0,13.0,70,0.00,,SCT050,0.01,120.00,VWS V14.01,2013-05-19 22:29:00,
2013-05-19 18:30:00,80.9,70.2,29.99,SE,135,2.0,13.0,70,0.00,,,0.01,118.00,VWS V15.00,2013-05-19 22:30:00,
2013-05-19 18:34:00,81.1,70.0,29.99,SE,135,1.0,2.0,69,0.00,,SCT050,0.01,104.00,VWS V14.01,2013-05-19 22:34:00,
2013-05-19 18:39:00,81.0,70.7,30.00,ENE,57,8.0,11.0,71,0.00,,SCT050,0.01,90.00,VWS V14.01,2013-05-19 22:39:00,
2013-05-19 18:44:00,79.8,68.7,30.00,ENE,71,12.0,14.0,69,0.00,,SCT050,0.01,91.00,VWS V14.01,2013-05-19 22:44:00,
2013-05-19 18:49:00,78.2,68.4,30.01,ESE,107,9.0,14.0,72,0.00,,SCT050,0.01,76.00,VWS V14.01,2013-05-19 22:49:00,
2013-05-19 18:54:00,77.3,68.0,30.01,East,84,11.0,14.0,73,0.00,,SCT050,0.01,88.00,VWS V14.01,2013-05-19 22:54:00,
2013-05-19 18:59:00,77.2,67.9,30.00,NNE,28,4.0,14.0,73,0.00,,SCT050,0.01,84.00,VWS V14.01,2013-05-19 22:59:00,
2013-05-19 19:00:00,80.0,69.8,30.00,ESE,123,10.0,18.0,71,0.00,,,0.01,93.00,VWS V15.00,2013-05-19 23:00:00,
2013-05-19 19:04:00,77.5,67.4,30.00,ENE,63,0.0,5.0,71,0.00,,SCT050,0.01,88.00,VWS V14.01,2013-05-19 23:04:00,
2013-05-19 19:09:00,77.7,67.6,29.99,ENE,63,0.0,5.0,71,0.00,,SCT050,0.01,83.00,VWS V14.01,2013-05-19 23:09:00,
2013-05-19 19:14:00,77.8,68.1,30.00,South,174,3.0,5.0,72,0.00,,SCT050,0.01,62.00,VWS V14.01,2013-05-19 23:14:00,
2013-05-19 19:19:00,78.0,67.8,30.01,SW,226,4.0,6.0,71,0.00,,SCT050,0.01,53.00,VWS V14.01,2013-05-19 23:19:00,
2013-05-19 19:24:00,77.8,68.1,30.01,SSW,198,5.0,9.0,72,0.00,,SCT050,0.01,44.00,VWS V14.01,2013-05-19 23:24:00,
2013-05-19 19:29:00,77.3,68.0,30.00,SSE,159,1.0,9.0,73,0.00,,SCT050,0.01,40.00,VWS V14.01,2013-05-19 23:29:00,
2013-05-19 19:30:00,77.3,68.4,30.01,SSE,159,2.0,9.0,74,0.00,,,0.01,39.00,VWS V15.00,2013-05-19 23:30:00,
2013-05-19 19:34:00,77.1,68.6,30.01,South,184,3.0,3.0,75,0.00,,SCT050,0.01,40.00,VWS V14.01,2013-05-19 23:34:00,
2013-05-19 19:39:00,77.1,67.8,30.00,SSE,164,3.0,5.0,73,0.00,,SCT050,0.01,35.00,VWS V14.01,2013-05-19 23:39:00,
2013-05-19 19:44:00,77.1,67.8,30.00,SSW,196,5.0,6.0,73,0.00,,SCT050,0.01,33.00,VWS V14.01,2013-05-19 23:44:00,
2013-05-19 19:49:00,77.1,68.2,30.00,SE,128,3.0,6.0,74,0.00,,SCT050,0.01,28.00,VWS V14.01,2013-05-19 23:49:00,
2013-05-19 19:54:00,77.1,68.2,30.02,ENE,74,4.0,6.0,74,0.00,,SCT050,0.01,21.00,VWS V14.01,2013-05-19 23:54:00,
2013-05-19 19:59:00,76.8,68.3,30.01,ESE,111,2.0,7.0,75,0.00,,CLR,0.01,14.00,VWS V14.01,2013-05-19 23:59:00,
2013-05-19 20:00:00,76.8,68.3,30.01,ESE,111,4.0,7.0,75,0.00,,,0.01,14.00,VWS V15.00,2013-05-20 00:00:00,
2013-05-19 20:05:00,76.7,68.9,30.01,SE,132,5.0,9.0,77,0.00,,CLR,0.01,7.00,VWS V14.01,2013-05-20 00:05:00,
2013-05-19 20:10:00,76.6,69.2,30.01,SE,138,13.0,13.0,78,0.00,,CLR,0.01,5.00,VWS V14.01,2013-05-20 00:10:00,
2013-05-19 20:15:00,76.2,68.8,30.02,SE,126,9.0,13.0,78,0.00,,CLR,0.01,0.00,VWS V14.01,2013-05-20 00:15:00,
2013-05-19 20:20:00,75.9,68.9,30.02,ESE,119,4.0,13.0,79,0.00,,CLR,0.01,0.00,VWS V14.01,2013-05-20 00:20:00,
2013-05-19 20:25:00,75.7,69.1,30.02,ESE,120,3.0,13.0,80,0.00,,CLR,0.01,0.00,VWS V14.01,2013-05-20 00:25:00,
2013-05-19 20:30:00,75.5,68.9,30.02,SE,127,4.0,13.0,80,0.00,,CLR,0.01,0.00,VWS V14.01,2013-05-20 00:30:00,
2013-05-19 20:35:00,75.4,69.2,30.02,SE,141,4.0,5.0,81,0.00,,CLR,0.01,0.00,VWS V14.01,2013-05-20 00:35:00,
2013-05-19 20:40:00,75.4,69.2,30.02,ESE,120,3.0,5.0,81,0.00,,CLR,0.01,0.00,VWS V14.01,2013-05-20 00:40:00,
2013-05-19 20:45:00,75.3,69.1,30.03,ESE,109,4.0,5.0,81,0.00,,CLR,0.01,0.00,VWS V14.01,2013-05-20 00:45:00,
2013-05-19 20:50:00,75.1,69.2,30.03,ESE,109,2.0,5.0,82,0.00,,CLR,0.01,0.00,VWS V14.01,2013-05-20 00:50:00,
2013-05-19 20:55:00,74.8,69.3,30.03,ESE,105,4.0,5.0,83,0.00,,CLR,0.01,0.00,VWS V14.01,2013-05-20 00:55:00,
2013-05-19 21:00:00,74.8,69.3,30.03,SE,144,4.0,8.0,83,0.00,,CLR,0.01,0.00,VWS V14.01,2013-05-20 01:00:00,
2013-05-19 21:05:00,74.9,69.4,30.03,SE,132,3.0,6.0,83,0.00,,CLR,0.01,0.00,VWS V14.01,2013-05-20 01:05:00,
2013-05-19 21:10:00,74.9,69.4,30.03,East,99,3.0,7.0,83,0.00,,CLR,0.01,0.00,VWS V14.01,2013-05-20 01:10:00,
2013-05-19 21:15:00,74.7,69.6,30.03,SE,142,3.0,7.0,84,0.00,,CLR,0.01,0.00,VWS V14.01,2013-05-20 01:15:00,
2013-05-19 21:20:00,74.7,69.6,30.03,ESE,121,3.0,7.0,84,0.00,,CLR,0.01,0.00,VWS V14.01,2013-05-20 01:20:00,
2013-05-19 21:25:00,74.8,70.0,30.04,ESE,113,4.0,7.0,85,0.00,,CLR,0.01,0.00,VWS V14.01,2013-05-20 01:25:00,
2013-05-19 21:30:00,74.8,70.0,30.05,ESE,121,3.0,7.0,85,0.00,,CLR,0.01,0.00,VWS V14.01,2013-05-20 01:30:00,
2013-05-19 21:35:00,74.7,69.9,30.05,NE,55,4.0,4.0,85,0.00,,CLR,0.01,0.00,VWS V14.01,2013-05-20 01:35:00,
2013-05-19 21:40:00,74.6,69.8,30.06,East,82,0.0,4.0,85,0.00,,CLR,0.01,0.00,VWS V14.01,2013-05-20 01:40:00,
2013-05-19 21:45:00,74.6,69.8,30.06,East,89,2.0,4.0,85,0.00,,CLR,0.01,0.00,VWS V14.01,2013-05-20 01:45:00,
2013-05-19 21:50:00,74.6,70.1,30.06,ESE,105,3.0,4.0,86,0.00,,CLR,0.01,0.00,VWS V14.01,2013-05-20 01:50:00,
2013-05-19 21:55:00,74.7,70.6,30.06,ESE,105,2.0,4.0,87,0.00,,CLR,0.01,0.00,VWS V14.01,2013-05-20 01:55:00,
2013-05-19 22:00:00,74.7,70.2,30.06,East,94,1.0,4.0,86,0.00,,CLR,0.01,0.00,VWS V14.01,2013-05-20 02:00:00,
2013-05-19 22:05:00,74.7,70.2,30.06,ESE,110,2.0,4.0,86,0.00,,CLR,0.01,0.00,VWS V14.01,2013-05-20 02:05:00,
2013-05-19 22:10:00,74.8,70.7,30.06,SE,127,4.0,5.0,87,0.00,,CLR,0.01,0.00,VWS V14.01,2013-05-20 02:10:00,
2013-05-19 22:15:00,74.8,70.7,30.07,SE,126,2.0,6.0,87,0.00,,CLR,0.01,0.00,VWS V14.01,2013-05-20 02:15:00,
2013-05-19 22:20:00,74.7,70.6,30.07,ESE,119,2.0,6.0,87,0.00,,CLR,0.01,0.00,VWS V14.01,2013-05-20 02:20:00,
2013-05-19 22:25:00,74.6,70.8,30.07,ESE,117,2.0,6.0,88,0.00,,CLR,0.01,0.00,VWS V14.01,2013-05-20 02:25:00,
2013-05-19 22:30:00,74.6,70.8,30.07,ESE,117,1.0,6.0,88,0.00,,CLR,0.01,0.00,VWS V14.01,2013-05-20 02:30:00,
2013-05-19 22:35:00,74.5,70.7,30.08,ESE,107,3.0,5.0,88,0.00,,CLR,0.01,0.00,VWS V14.01,2013-05-20 02:35:00,
2013-05-19 22:40:00,74.4,70.6,30.08,East,93,5.0,5.0,88,0.00,,CLR,0.01,0.00,VWS V14.01,2013-05-20 02:40:00,
2013-05-19 22:46:00,74.2,70.8,30.08,ESE,104,1.0,5.0,89,0.00,,CLR,0.01,0.00,VWS V14.01,2013-05-20 02:46:00,
2013-05-19 22:51:00,74.2,70.8,30.07,ESE,113,5.0,5.0,89,0.00,,CLR,0.01,0.00,VWS V14.01,2013-05-20 02:51:00,
2013-05-19 22:56:00,74.3,71.2,30.07,SE,133,3.0,5.0,90,0.00,,CLR,0.01,0.00,VWS V14.01,2013-05-20 02:56:00,
2013-05-19 23:00:00,74.3,71.2,30.07,ESE,118,3.0,7.0,90,0.00,,,0.01,0.00,VWS V15.00,2013-05-20 03:00:00,
2013-05-19 23:01:00,74.3,71.2,30.07,ESE,118,3.0,7.0,90,0.00,,CLR,0.01,0.00,VWS V14.01,2013-05-20 03:01:00,
2013-05-19 23:06:00,74.2,71.1,30.07,ESE,114,3.0,7.0,90,0.00,,CLR,0.01,0.00,VWS V14.01,2013-05-20 03:06:00,
2013-05-19 23:11:00,74.3,71.2,30.07,ESE,113,3.0,7.0,90,0.00,,CLR,0.01,0.00,VWS V14.01,2013-05-20 03:11:00,
2013-05-19 23:16:00,74.2,71.1,30.08,ESE,115,1.0,7.0,90,0.00,,CLR,0.01,0.00,VWS V14.01,2013-05-20 03:16:00,
2013-05-19 23:21:00,74.2,71.1,30.08,SSE,165,4.0,7.0,90,0.00,,FEW060,0.01,0.00,VWS V14.01,2013-05-20 03:21:00,
2013-05-19 23:26:00,74.3,71.2,30.08,East,91,3.0,7.0,90,0.00,,FEW060,0.01,0.00,VWS V14.01,2013-05-20 03:26:00,
2013-05-19 23:30:00,74.6,70.8,30.07,ESE,117,1.0,6.0,88,0.00,,,0.01,0.00,VWS V15.00,2013-05-20 03:30:00,
2013-05-19 23:31:00,74.2,71.1,30.08,SE,134,3.0,3.0,90,0.00,,FEW060,0.01,0.00,VWS V14.01,2013-05-20 03:31:00,
2013-05-19 23:36:00,74.2,71.1,30.07,SE,142,7.0,7.0,90,0.00,,FEW060,0.01,0.00,VWS V14.01,2013-05-20 03:36:00,
2013-05-19 23:41:00,74.0,70.9,30.08,SSE,156,3.0,7.0,90,0.00,,CLR,0.01,0.00,VWS V14.01,2013-05-20 03:41:00,
2013-05-19 23:46:00,74.0,70.9,30.08,SE,124,1.0,7.0,90,0.00,,CLR,0.01,0.00,VWS V14.01,2013-05-20 03:46:00,
2013-05-19 23:51:00,73.9,70.8,30.08,East,90,2.0,7.0,90,0.00,,CLR,0.01,0.00,VWS V14.01,2013-05-20 03:51:00,
2013-05-19 23:56:00,73.8,70.7,30.08,ESE,121,3.0,7.0,90,0.00,,CLR,0.01,0.00,VWS V14.01,2013-05-20 03:56:00,